Time;durP1;ratioP1;P1;durP2;ratioP2;P2;SDS_P1;SDS_P2;PMS_P1;PMS_P2;Temp;Humidity;BMP_temperature;BMP_pressure;BME280_temperature;BME280_humidity;BME280_pressure;Samples;Min_cycle;Max_cycle;Signal;HPM_P1;HPM_P2
2021/01/06 00:01:23;;;;;;;64.40;30.10;;;;;;;2.91;93.21;97424.75;5033463;28;20051;-78
2021/01/06 00:03:50;;;;;;;68.93;31.52;;;;;;;2.96;93.13;97438.66;5027224;28;20058;-78
2021/01/06 00:06:17;;;;;;;55.53;26.83;;;;;;;2.92;93.64;97445.00;5002566;28;20030;-77
2021/01/06 00:08:46;;;;;;;62.70;30.58;;;;;;;3.03;92.86;97463.09;4954816;28;20031;-78
2021/01/06 00:11:13;;;;;;;60.10;29.65;;;;;;;3.00;93.29;97463.19;5017026;28;20035;-78
2021/01/06 00:13:39;;;;;;;61.60;30.05;;;;;;;3.07;93.91;97467.38;4983319;28;20110;-77
2021/01/06 00:16:05;;;;;;;67.47;30.77;;;;;;;2.99;94.15;97457.06;5016057;28;20033;-77
2021/01/06 00:18:31;;;;;;;66.78;31.38;;;;;;;3.04;93.38;97454.28;5005063;28;20113;-77
2021/01/06 00:20:57;;;;;;;71.68;31.13;;;;;;;3.04;93.33;97454.28;5037422;28;20056;-78
2021/01/06 00:23:23;;;;;;;66.13;31.13;;;;;;;3.12;92.91;97466.31;4986203;28;20035;-78
2021/01/06 00:25:49;;;;;;;52.05;24.83;;;;;;;3.13;91.56;97465.41;4985891;28;20405;-77
2021/01/06 00:28:17;;;;;;;57.65;28.02;;;;;;;3.03;92.50;97463.09;5021052;28;20112;-78
2021/01/06 00:30:46;;;;;;;53.47;27.17;;;;;;;2.87;92.31;97462.75;5032825;28;20049;-78
2021/01/06 00:33:16;;;;;;;55.70;27.50;;;;;;;2.76;92.42;97458.72;4999415;28;20029;-77
2021/01/06 00:35:41;;;;;;;58.25;28.95;;;;;;;2.73;93.11;97468.50;5050178;28;20021;-77
2021/01/06 00:38:07;;;;;;;51.42;25.33;;;;;;;2.68;92.75;97469.53;4981991;28;20025;-77
2021/01/06 00:40:34;;;;;;;48.58;24.98;;;;;;;2.70;93.61;97470.38;4972293;28;20037;-77
2021/01/06 00:43:07;;;;;;;45.40;22.30;;;;;;;2.71;92.99;97465.03;4994453;28;20038;-77
2021/01/06 00:45:34;;;;;;;51.85;24.42;;;;;;;2.62;93.84;97467.09;5022633;28;20482;-77
2021/01/06 00:48:00;;;;;;;48.10;24.73;;;;;;;2.57;94.60;97480.44;4976467;28;20054;-77
2021/01/06 00:50:27;;;;;;;40.22;21.10;;;;;;;2.59;93.66;97478.63;5033410;28;20511;-77
2021/01/06 00:52:59;;;;;;;49.08;22.65;;;;;;;2.69;93.10;97474.78;4961613;28;20064;-78
2021/01/06 00:55:24;;;;;;;52.58;25.25;;;;;;;2.80;92.83;97471.78;5008144;28;20516;-77
2021/01/06 00:57:51;;;;;;;64.75;31.60;;;;;;;2.88;93.03;97476.81;5036839;28;20032;-77
2021/01/06 01:00:19;;;;;;;52.65;22.67;;;;;;;2.95;91.28;97486.28;5003232;28;20096;-78
2021/01/06 01:02:50;;;;;;;44.67;21.63;;;;;;;2.98;90.72;97470.31;5036896;28;20484;-77
2021/01/06 01:05:18;;;;;;;55.88;26.40;;;;;;;3.01;91.27;97489.59;5005485;28;20036;-77
2021/01/06 01:07:43;;;;;;;54.70;24.75;;;;;;;3.00;92.58;97489.63;5036667;28;20056;-77
2021/01/06 01:10:49;;;;;;;51.67;23.88;;;;;;;2.97;93.04;97479.16;4991295;28;20062;-77
2021/01/06 01:13:21;;;;;;;51.00;24.15;;;;;;;3.03;92.86;97489.53;5007400;28;20058;-77
2021/01/06 01:15:48;;;;;;;81.85;33.95;;;;;;;3.01;91.90;97488.72;5036448;28;20028;-77
2021/01/06 01:18:17;;;;;;;147.40;50.03;;;;;;;3.10;91.17;97485.75;4969430;28;20039;-78
2021/01/06 01:20:50;;;;;;;52.47;25.15;;;;;;;3.12;90.52;97478.63;4973274;28;20043;-77
2021/01/06 01:23:18;;;;;;;64.63;29.42;;;;;;;3.07;91.19;97470.88;4954633;28;20581;-77
2021/01/06 01:25:44;;;;;;;67.20;28.38;;;;;;;3.04;92.00;97478.91;5000890;28;20519;-78
2021/01/06 01:28:14;;;;;;;59.60;27.60;;;;;;;3.10;91.89;97475.19;4957910;28;20027;-78
2021/01/06 01:30:40;;;;;;;63.35;27.27;;;;;;;3.04;92.64;97475.41;5015839;28;20114;-77
2021/01/06 01:33:06;;;;;;;55.35;26.45;;;;;;;3.00;91.84;97468.47;5036281;28;20476;-77
2021/01/06 01:35:32;;;;;;;43.47;20.83;;;;;;;2.97;90.97;97453.59;5002296;28;20021;-77
2021/01/06 01:38:00;;;;;;;44.58;20.23;;;;;;;2.84;91.82;97440.84;5002064;28;20404;-78
2021/01/06 01:40:26;;;;;;;40.78;20.48;;;;;;;2.76;92.05;97437.59;5035879;28;20549;-77
2021/01/06 01:42:57;;;;;;;40.35;19.92;;;;;;;2.71;92.75;97428.06;5018758;28;20024;-77
2021/01/06 01:45:28;;;;;;;36.05;19.77;;;;;;;2.64;92.55;97423.91;4955967;28;20535;-77
2021/01/06 01:48:02;;;;;;;37.25;18.63;;;;;;;2.64;92.64;97423.91;5035993;28;20085;-77
2021/01/06 01:50:29;;;;;;;38.47;19.38;;;;;;;2.54;93.12;97422.47;4983358;28;20410;-77
2021/01/06 01:53:05;;;;;;;46.42;23.45;;;;;;;2.64;93.35;97439.75;4988383;28;20036;-79
2021/01/06 01:55:31;;;;;;;44.67;22.08;;;;;;;2.65;93.96;97445.88;4982331;28;20042;-77
2021/01/06 01:58:02;;;;;;;43.58;22.33;;;;;;;2.69;93.34;97448.38;4954338;28;20042;-78
2021/01/06 02:00:30;;;;;;;37.47;16.73;;;;;;;2.59;90.85;97431.09;4954604;28;20043;-77
2021/01/06 02:03:21;;;;;;;29.08;15.05;;;;;;;2.76;91.03;97438.47;4987553;28;20044;-77
2021/01/06 02:05:57;;;;;;;31.05;15.30;;;;;;;2.68;91.02;97445.78;5007595;28;20031;-77
2021/01/06 02:08:31;;;;;;;31.38;15.85;;;;;;;2.75;91.84;97457.88;4968066;28;20063;-77
2021/01/06 02:10:58;;;;;;;29.38;15.45;;;;;;;2.84;91.86;97448.78;5002516;28;20048;-77
2021/01/06 02:13:34;;;;;;;36.70;17.17;;;;;;;2.92;90.54;97466.13;4968594;28;20033;-78
2021/01/06 02:16:03;;;;;;;26.38;12.80;;;;;;;3.06;88.60;97457.72;4967295;28;20031;-78
2021/01/06 02:18:29;;;;;;;15.45;8.35;;;;;;;3.74;82.61;97439.44;5004141;28;20128;-77
2021/01/06 02:21:03;;;;;;;19.75;8.45;;;;;;;4.13;80.09;97435.28;5004308;28;20125;-78
2021/01/06 02:23:29;;;;;;;17.52;9.50;;;;;;;4.16;80.52;97439.59;4970740;28;20027;-78
2021/01/06 02:25:55;;;;;;;20.92;11.55;;;;;;;4.22;82.20;97434.91;4987887;28;20533;-77
2021/01/06 02:28:20;;;;;;;25.27;12.05;;;;;;;4.05;82.53;97436.50;4965110;28;20033;-77
2021/01/06 02:30:46;;;;;;;24.40;12.23;;;;;;;3.88;83.97;97423.06;4975729;28;20043;-78
2021/01/06 02:33:12;;;;;;;22.63;11.27;;;;;;;3.83;83.44;97426.72;4993253;28;20036;-78
2021/01/06 02:35:37;;;;;;;23.88;13.20;;;;;;;3.58;86.02;97417.97;5031361;28;20023;-77
2021/01/06 02:38:03;;;;;;;24.98;12.55;;;;;;;3.48;86.22;97418.34;4970040;28;20023;-78
2021/01/06 02:40:29;;;;;;;26.15;13.20;;;;;;;3.52;86.28;97425.25;5002504;28;20025;-77
2021/01/06 02:42:54;;;;;;;24.60;12.60;;;;;;;3.53;85.44;97422.56;5001282;28;20021;-77
2021/01/06 02:45:20;;;;;;;20.02;10.15;;;;;;;3.61;84.45;97432.84;5034688;28;20032;-77
2021/01/06 02:47:50;;;;;;;26.30;13.13;;;;;;;3.65;86.96;97447.69;5034885;28;20029;-78
2021/01/06 02:50:19;;;;;;;23.55;13.02;;;;;;;3.71;86.07;97427.19;5027812;28;20025;-78
2021/01/06 02:53:01;;;;;;;22.63;11.13;;;;;;;3.86;83.26;97438.09;4969739;28;20502;-78
2021/01/06 02:55:29;;;;;;;29.10;13.10;;;;;;;3.87;84.69;97423.97;4953741;28;20570;-78
2021/01/06 02:57:57;;;;;;;17.63;8.85;;;;;;;4.06;81.62;97422.34;4953587;28;20031;-78
2021/01/06 03:00:25;;;;;;;10.68;5.68;;;;;;;4.42;78.97;97428.84;4963289;28;20118;-78
2021/01/06 03:02:52;;;;;;;16.02;7.65;;;;;;;4.45;77.88;97415.50;5009008;28;20114;-78
2021/01/06 03:05:20;;;;;;;29.08;12.52;;;;;;;4.54;78.36;97427.50;5009511;28;20023;-78
2021/01/06 03:07:47;;;;;;;10.75;5.55;;;;;;;4.55;77.73;97422.16;5028705;28;20027;-78
2021/01/06 03:10:18;;;;;;;15.15;6.25;;;;;;;4.58;77.50;97416.75;4953277;28;20030;-79
2021/01/06 03:12:45;;;;;;;10.38;5.78;;;;;;;4.66;76.69;97406.69;4953536;28;20027;-78
2021/01/06 03:15:12;;;;;;;15.15;7.63;;;;;;;4.69;76.92;97413.63;5022123;28;20029;-78
2021/01/06 03:17:38;;;;;;;14.30;6.65;;;;;;;4.59;77.30;97402.56;5033720;28;20101;-78
2021/01/06 03:20:09;;;;;;;13.02;7.35;;;;;;;4.63;77.06;97398.88;4983982;28;20140;-78
2021/01/06 03:22:36;;;;;;;17.08;8.82;;;;;;;4.69;76.43;97398.63;5011263;28;20406;-78
2021/01/06 03:25:07;;;;;;;14.38;7.95;;;;;;;4.74;76.78;97411.66;4998643;28;20025;-78
2021/01/06 03:27:34;;;;;;;19.77;9.48;;;;;;;4.79;76.88;97399.97;4987196;28;20422;-78
2021/01/06 03:30:01;;;;;;;12.93;6.55;;;;;;;4.85;75.02;97399.72;5014727;28;20081;-78
2021/01/06 03:32:46;;;;;;;32.63;13.38;;;;;;;4.89;74.72;97395.97;5017083;28;20518;-78
2021/01/06 03:35:28;;;;;;;29.38;10.68;;;;;;;5.03;76.17;97403.38;5050472;28;20033;-77
2021/01/06 03:37:58;;;;;;;23.67;12.17;;;;;;;5.11;74.40;97403.03;5009598;28;20057;-77
2021/01/06 03:40:29;;;;;;;18.15;8.20;;;;;;;5.18;74.76;97386.81;4959999;28;20278;-78
2021/01/06 03:42:55;;;;;;;23.67;8.93;;;;;;;5.12;75.07;97399.44;4976315;28;20069;-76
2021/01/06 03:45:24;;;;;;;14.63;7.05;;;;;;;5.14;73.38;97385.19;4957476;28;20062;-76
2021/01/06 03:48:00;;;;;;;25.27;11.02;;;;;;;5.22;74.22;97393.72;5033890;28;20108;-78
2021/01/06 03:50:34;;;;;;;27.75;11.80;;;;;;;5.23;74.99;97379.50;5033705;28;20032;-76
2021/01/06 03:53:36;;;;;;;29.20;12.50;;;;;;;5.22;75.33;97398.16;5033614;28;20114;-78
2021/01/06 03:56:27;;;;;;;40.80;17.83;;;;;;;5.06;76.89;97394.41;5023619;28;20039;-77
2021/01/06 03:59:01;;;;;;;42.83;17.40;;;;;;;4.98;78.21;97407.16;5008029;28;20119;-79
2021/01/06 04:01:51;;;;;;;41.83;17.85;;;;;;;4.93;77.98;97408.19;5016208;28;20037;-77
2021/01/06 04:04:20;;;;;;;38.72;17.75;;;;;;;4.91;78.58;97399.44;5016298;28;20075;-77
2021/01/06 04:06:49;;;;;;;42.97;17.85;;;;;;;4.86;78.84;97405.88;5016314;28;20021;-78
2021/01/06 04:09:31;;;;;;;34.25;17.15;;;;;;;4.86;78.75;97403.22;5000699;28;20110;-77
2021/01/06 04:12:04;;;;;;;47.42;21.73;;;;;;;4.81;78.33;97395.44;4952688;28;20092;-77
2021/01/06 04:14:30;;;;;;;45.33;20.13;;;;;;;4.76;79.49;97394.78;5019574;28;20041;-79
2021/01/06 04:16:56;;;;;;;42.10;19.25;;;;;;;4.79;80.48;97404.41;4952712;28;20043;-77
2021/01/06 04:19:21;;;;;;;140.30;69.80;;;;;;;4.69;80.48;97393.31;4985798;28;20587;-78
2021/01/06 04:21:47;;;;;;;47.50;23.15;;;;;;;4.75;80.00;97419.56;4985651;28;20034;-78
2021/01/06 04:24:13;;;;;;;73.50;32.08;;;;;;;4.74;80.83;97416.94;4983068;28;20076;-78
2021/01/06 04:26:40;;;;;;;107.85;41.65;;;;;;;4.59;80.93;97418.44;4971246;28;20084;-77
2021/01/06 04:29:06;;;;;;;96.10;41.03;;;;;;;4.46;82.30;97422.50;5012431;28;20036;-77
2021/01/06 04:31:32;;;;;;;48.78;21.67;;;;;;;4.36;80.63;97423.81;4961347;28;20498;-77
2021/01/06 04:33:58;;;;;;;75.57;32.88;;;;;;;4.37;81.37;97418.44;5010911;28;20025;-77
2021/01/06 04:36:29;;;;;;;69.85;30.98;;;;;;;4.34;82.70;97423.84;5001585;28;20038;-78
2021/01/06 04:38:58;;;;;;;97.07;43.70;;;;;;;4.41;81.59;97427.13;4975408;28;20080;-77
2021/01/06 04:41:41;;;;;;;81.90;34.95;;;;;;;4.41;81.09;97428.91;5003667;28;20314;-78
2021/01/06 04:44:56;;;;;;;65.00;29.33;;;;;;;4.42;81.77;97428.00;5019594;28;20116;-78
2021/01/06 04:47:44;;;;;;;48.95;22.80;;;;;;;4.43;81.57;97425.28;4956637;28;20042;-77
2021/01/06 04:50:39;;;;;;;51.70;24.27;;;;;;;4.61;78.26;97419.25;4953794;28;20023;-79
2021/01/06 04:53:32;;;;;;;48.10;24.45;;;;;;;4.75;79.33;97423.97;4941638;28;20039;-79
2021/01/06 04:56:18;;;;;;;47.75;21.95;;;;;;;4.90;75.18;97410.97;4972497;28;20035;-77
2021/01/06 04:59:06;;;;;;;26.80;13.68;;;;;;;5.26;71.21;97408.53;5004556;28;20058;-78
2021/01/06 05:01:41;;;;;;;29.73;14.07;;;;;;;5.66;68.97;97407.63;5027024;28;20037;-78
2021/01/06 05:04:27;;;;;;;26.83;14.18;;;;;;;6.12;66.30;97418.88;5020432;28;20035;-77
2021/01/06 05:07:00;;;;;;;77.03;25.08;;;;;;;6.72;63.92;97415.09;4955821;28;20104;-78
2021/01/06 05:09:32;;;;;;;11.73;6.35;;;;;;;7.18;61.41;97417.19;4968600;28;20034;-78
2021/01/06 05:12:08;;;;;;;7.20;3.90;;;;;;;7.64;58.83;97419.19;5034744;28;20116;-77
2021/01/06 05:14:40;;;;;;;5.55;3.38;;;;;;;7.98;57.06;97422.72;4992774;28;20114;-78
2021/01/06 05:17:06;;;;;;;8.23;2.88;;;;;;;8.19;55.64;97414.44;5036272;28;20427;-78
2021/01/06 05:19:33;;;;;;;8.57;4.28;;;;;;;8.40;55.05;97425.75;4998856;28;20042;-78
2021/01/06 05:22:00;;;;;;;6.57;3.63;;;;;;;8.52;55.13;97419.75;4972800;28;20476;-77
2021/01/06 05:24:25;;;;;;;6.18;3.50;;;;;;;8.61;54.77;97426.38;4969640;28;20500;-79
2021/01/06 05:27:13;;;;;;;5.78;3.42;;;;;;;8.78;53.47;97442.28;5039626;28;20081;-79
2021/01/06 05:29:44;;;;;;;16.08;5.93;;;;;;;8.67;55.15;97424.19;5006527;28;20030;-80
2021/01/06 05:32:37;;;;;;;26.35;10.13;;;;;;;8.21;59.17;97441.00;5011954;28;20122;-78
2021/01/06 05:35:14;;;;;;;22.50;10.85;;;;;;;7.62;61.72;97437.06;4972976;28;20488;-78
2021/01/06 05:37:39;;;;;;;17.67;9.20;;;;;;;7.18;63.97;97442.91;4995594;28;20492;-80
2021/01/06 05:40:08;;;;;;;16.02;6.88;;;;;;;6.89;62.46;97433.75;4942818;29;20032;-77
2021/01/06 05:42:55;;;;;;;11.77;5.57;;;;;;;7.26;60.60;97432.78;5002949;28;20021;-78
2021/01/06 05:45:25;;;;;;;8.13;4.57;;;;;;;7.51;58.40;97427.88;5019401;28;20528;-77
2021/01/06 05:48:15;;;;;;;5.25;2.95;;;;;;;7.83;56.74;97437.72;5018739;28;20027;-79
2021/01/06 05:50:41;;;;;;;9.98;4.93;;;;;;;7.98;56.87;97439.56;5052482;28;20018;-79
2021/01/06 05:53:47;;;;;;;24.23;10.50;;;;;;;7.59;61.35;97447.88;5035881;28;20021;-76
2021/01/06 05:56:30;;;;;;;18.02;7.25;;;;;;;6.95;64.26;97444.91;5030017;28;20041;-77
2021/01/06 05:59:20;;;;;;;17.13;7.35;;;;;;;6.54;65.94;97452.25;4954248;28;20088;-76
2021/01/06 06:01:52;;;;;;;20.15;7.78;;;;;;;6.37;67.50;97453.94;5011883;28;20544;-76
2021/01/06 06:04:30;;;;;;;17.90;5.93;;;;;;;6.14;67.29;97456.81;5010968;28;20037;-76
2021/01/06 06:07:06;;;;;;;23.27;8.02;;;;;;;6.06;68.24;97456.31;5049862;28;20064;-77
2021/01/06 06:09:52;;;;;;;82.32;31.65;;;;;;;6.21;67.46;97458.28;5003497;28;20041;-73
2021/01/06 06:12:35;;;;;;;53.50;23.45;;;;;;;6.26;67.14;97453.59;4953554;28;20510;-74
2021/01/06 06:15:25;;;;;;;21.35;8.90;;;;;;;6.56;63.25;97457.47;5034322;28;20037;-78
2021/01/06 06:18:18;;;;;;;8.65;3.80;;;;;;;7.28;58.99;97469.00;5009012;28;20041;-78
2021/01/06 06:20:58;;;;;;;8.45;4.50;;;;;;;7.70;57.38;97473.91;4969456;28;20030;-79
2021/01/06 06:23:43;;;;;;;13.32;6.03;;;;;;;8.01;56.86;97478.50;4969687;28;20039;-74
2021/01/06 06:26:21;;;;;;;21.65;6.90;;;;;;;8.20;56.42;97484.56;4973679;28;20044;-74
2021/01/06 06:29:19;;;;;;;22.40;10.10;;;;;;;8.29;55.18;97486.78;4967186;28;20033;-74
2021/01/06 06:32:04;;;;;;;8.38;4.70;;;;;;;8.39;54.40;97487.16;4997155;28;20041;-73
2021/01/06 06:34:33;;;;;;;8.50;4.35;;;;;;;8.58;53.72;97487.88;4986951;28;20034;-74
2021/01/06 06:37:14;;;;;;;11.20;5.80;;;;;;;8.62;54.44;97495.59;4998113;28;20042;-74
2021/01/06 06:39:44;;;;;;;15.23;4.97;;;;;;;8.60;54.57;97486.84;5034501;28;20028;-74
2021/01/06 06:42:13;;;;;;;9.88;5.25;;;;;;;8.79;52.69;97500.00;4955856;28;20406;-74
2021/01/06 06:44:50;;;;;;;26.80;14.48;;;;;;;8.85;53.07;97486.34;5003936;28;20029;-74
2021/01/06 06:47:17;;;;;;;16.40;7.00;;;;;;;8.91;52.47;97493.13;4959345;28;20020;-74
2021/01/06 06:49:55;;;;;;;38.25;17.13;;;;;;;8.89;53.60;97498.53;4982521;28;20023;-73
2021/01/06 06:52:42;;;;;;;40.15;18.67;;;;;;;8.87;53.72;97494.22;4969231;28;20065;-73
2021/01/06 06:55:46;;;;;;;28.00;11.93;;;;;;;8.92;52.47;97492.19;4938746;28;20037;-74
2021/01/06 06:58:32;;;;;;;10.38;5.80;;;;;;;9.09;51.58;97494.75;4969307;28;20021;-74
2021/01/06 07:00:58;;;;;;;14.73;7.43;;;;;;;9.16;51.21;97496.13;5025907;28;20029;-74
2021/01/06 07:03:26;;;;;;;9.98;4.82;;;;;;;9.40;49.85;97499.19;5009096;28;20057;-74
2021/01/06 07:05:56;;;;;;;14.98;5.97;;;;;;;9.48;50.32;97487.09;5012045;28;20034;-74
2021/01/06 07:08:36;;;;;;;22.65;10.45;;;;;;;9.55;50.97;97503.63;4990486;28;20075;-74
2021/01/06 07:11:23;;;;;;;9.68;4.22;;;;;;;9.49;51.33;97504.84;5006659;28;20464;-74
2021/01/06 07:14:02;;;;;;;10.55;4.72;;;;;;;9.27;53.44;97505.25;5036327;28;20487;-74
2021/01/06 07:16:32;;;;;;;29.40;14.77;;;;;;;9.36;52.23;97500.31;4992717;28;20059;-74
2021/01/06 07:19:33;;;;;;;33.50;14.23;;;;;;;9.42;51.60;97503.47;5043187;28;20087;-74
2021/01/06 07:22:03;;;;;;;10.77;4.97;;;;;;;9.47;51.30;97503.22;5002028;28;20036;-73
2021/01/06 07:24:29;;;;;;;28.27;10.75;;;;;;;9.37;52.42;97486.88;5010018;28;20032;-77
2021/01/06 07:27:01;;;;;;;52.92;23.65;;;;;;;9.66;51.05;97501.19;4999905;28;20029;-77
2021/01/06 07:29:33;;;;;;;26.48;12.02;;;;;;;9.80;50.06;97495.91;5033770;28;20036;-77
2021/01/06 07:32:09;;;;;;;24.00;11.35;;;;;;;9.96;50.58;97503.84;5050498;28;20071;-78
2021/01/06 07:34:54;;;;;;;9.90;5.57;;;;;;;9.85;50.72;97501.81;4973822;28;20410;-78
2021/01/06 07:37:28;;;;;;;25.50;12.02;;;;;;;9.71;51.73;97508.00;4922946;28;20031;-78
2021/01/06 07:40:04;;;;;;;12.98;5.45;;;;;;;9.72;50.16;97508.84;4955573;28;20058;-77
2021/01/06 07:42:39;;;;;;;9.98;6.18;;;;;;;9.95;50.17;97503.00;5011121;28;20027;-77
2021/01/06 07:45:20;;;;;;;16.52;7.90;;;;;;;10.17;49.01;97506.13;4952869;28;20148;-77
2021/01/06 07:48:36;;;;;;;8.93;5.20;;;;;;;10.30;48.49;97503.56;5002747;28;20049;-78
2021/01/06 07:51:01;;;;;;;9.95;5.43;;;;;;;10.46;47.96;97506.16;4954272;28;20045;-78
2021/01/06 07:53:41;;;;;;;11.95;6.93;;;;;;;10.53;48.76;97499.44;4931929;29;20040;-78
2021/01/06 07:56:25;;;;;;;9.90;5.70;;;;;;;10.52;47.88;97503.91;4951339;28;20042;-77
2021/01/06 07:58:54;;;;;;;12.95;6.15;;;;;;;10.54;48.31;97509.19;5035641;28;20025;-78
2021/01/06 08:01:42;;;;;;;12.05;5.93;;;;;;;10.50;48.18;97513.00;4930648;29;20085;-78
2021/01/06 08:04:17;;;;;;;11.15;3.35;;;;;;;10.62;48.32;97520.25;4914835;28;20020;-77
2021/01/06 08:06:53;;;;;;;7.68;3.72;;;;;;;10.70;47.60;97520.66;4957283;28;20123;-77
2021/01/06 08:09:42;;;;;;;6.82;3.20;;;;;;;11.01;47.38;97517.75;4969546;28;20037;-77
2021/01/06 08:12:27;;;;;;;9.32;3.90;;;;;;;11.15;47.10;97520.41;4992141;28;20055;-78
2021/01/06 08:15:15;;;;;;;9.93;3.83;;;;;;;11.30;46.34;97527.44;4979879;28;20032;-78
2021/01/06 08:18:02;;;;;;;6.90;4.13;;;;;;;11.74;45.99;97524.53;4971907;28;20062;-78
2021/01/06 08:20:33;;;;;;;5.53;2.85;;;;;;;12.34;44.36;97523.97;5002222;28;20036;-78
2021/01/06 08:23:13;;;;;;;7.35;3.40;;;;;;;13.84;41.16;97518.41;4989830;28;20023;-78
2021/01/06 08:25:41;;;;;;;8.15;4.03;;;;;;;15.56;37.75;97526.25;4984468;28;20088;-78
2021/01/06 08:28:18;;;;;;;4.70;2.50;;;;;;;16.63;35.27;97513.50;5039727;28;20082;-78
2021/01/06 08:30:43;;;;;;;10.40;3.38;;;;;;;16.36;35.41;97507.75;4980447;28;20044;-78
2021/01/06 08:33:13;;;;;;;9.18;3.15;;;;;;;15.86;36.57;97497.69;5019504;28;20032;-78
2021/01/06 08:35:44;;;;;;;7.47;4.00;;;;;;;16.60;34.82;97489.47;4992655;28;20482;-78
2021/01/06 08:38:31;;;;;;;6.35;3.00;;;;;;;16.22;35.00;97484.63;5028409;28;20029;-78
2021/01/06 08:41:17;;;;;;;7.55;3.85;;;;;;;14.71;38.11;97493.69;4966283;28;20398;-78
2021/01/06 08:43:43;;;;;;;7.65;3.78;;;;;;;13.90;39.99;97496.44;5034709;28;20443;-77
2021/01/06 08:46:21;;;;;;;6.22;3.80;;;;;;;13.41;40.10;97488.53;4987178;28;20035;-78
2021/01/06 08:48:47;;;;;;;6.40;2.58;;;;;;;13.97;39.15;97497.66;4996179;28;20051;-77
2021/01/06 08:51:14;;;;;;;10.25;4.38;;;;;;;15.63;37.04;97518.47;5002703;28;20040;-78
2021/01/06 08:53:41;;;;;;;4.47;2.83;;;;;;;15.60;35.87;97492.63;5002676;28;20049;-77
2021/01/06 08:56:33;;;;;;;6.28;3.67;;;;;;;15.51;36.12;97498.78;4984766;28;20046;-78
2021/01/06 08:58:58;;;;;;;17.55;4.28;;;;;;;16.87;34.11;97493.44;4954399;28;20038;-78
2021/01/06 09:01:30;;;;;;;4.95;3.20;;;;;;;17.44;32.72;97501.78;4999204;28;20043;-78
2021/01/06 09:04:14;;;;;;;6.57;4.40;;;;;;;17.73;32.45;97500.00;4996872;28;20021;-78
2021/01/06 09:06:50;;;;;;;5.05;2.60;;;;;;;17.28;32.58;97507.69;5017583;28;20069;-79
2021/01/06 09:09:27;;;;;;;4.93;3.22;;;;;;;16.25;35.07;97524.00;5004921;28;20031;-79
2021/01/06 09:11:54;;;;;;;6.40;3.80;;;;;;;16.27;34.40;97513.94;4954735;28;20114;-79
2021/01/06 09:14:26;;;;;;;8.02;4.43;;;;;;;16.27;34.82;97522.06;4994826;28;20041;-79
2021/01/06 09:17:04;;;;;;;5.43;2.95;;;;;;;16.39;34.56;97512.91;4993961;28;20445;-78
2021/01/06 09:19:47;;;;;;;7.00;4.50;;;;;;;17.23;33.80;97507.25;5038671;28;20066;-79
2021/01/06 09:22:14;;;;;;;8.13;3.83;;;;;;;18.42;31.38;97510.69;5024321;28;20532;-79
2021/01/06 09:24:42;;;;;;;3.60;2.03;;;;;;;18.76;29.99;97503.81;5035957;28;20027;-78
2021/01/06 09:27:16;;;;;;;3.40;2.42;;;;;;;19.30;29.07;97496.75;5002195;28;20029;-78
2021/01/06 09:29:42;;;;;;;9.05;4.60;;;;;;;19.32;29.13;97511.00;5028368;28;20024;-78
2021/01/06 09:32:20;;;;;;;10.02;5.07;;;;;;;19.19;29.89;97499.69;4985934;28;20029;-78
2021/01/06 09:34:55;;;;;;;18.45;6.43;;;;;;;18.37;30.81;97485.88;4988721;28;20023;-79
2021/01/06 09:37:28;;;;;;;4.18;2.70;;;;;;;17.28;32.13;97494.19;5021854;28;20393;-78
2021/01/06 09:39:54;;;;;;;;;;;;;;;17.07;32.71;97485.25;4988683;28;20035;-79
2021/01/06 09:42:20;;;;;;;6.65;3.13;;;;;;;17.02;32.88;97478.56;4988147;28;19967;-79
2021/01/06 09:44:47;;;;;;;5.63;3.15;;;;;;;18.14;31.37;97471.81;5007260;28;20461;-78
2021/01/06 09:47:32;;;;;;;4.85;3.58;;;;;;;18.72;29.84;97469.03;5052255;28;20060;-79
2021/01/06 09:50:01;;;;;;;8.48;5.32;;;;;;;19.17;29.63;97463.69;5010613;28;20042;-77
2021/01/06 09:52:34;;;;;;;4.38;2.65;;;;;;;19.46;28.75;97429.16;4995801;28;20425;-79
2021/01/06 09:55:00;;;;;;;9.18;2.22;;;;;;;19.81;28.43;97445.47;4975792;28;20035;-78
2021/01/06 09:57:27;;;;;;;2.75;1.83;;;;;;;19.58;28.19;97429.78;4994176;28;20037;-78
2021/01/06 09:59:55;;;;;;;4.35;2.40;;;;;;;19.15;29.60;97444.03;4980354;28;20038;-79
2021/01/06 10:02:25;;;;;;;3.60;2.60;;;;;;;19.13;28.94;97427.91;4987679;28;20040;-80
2021/01/06 10:04:55;;;;;;;11.90;5.25;;;;;;;19.91;28.14;97442.69;4953760;28;20084;-78
2021/01/06 10:07:44;;;;;;;8.98;3.13;;;;;;;21.00;26.11;97429.41;5022250;28;20029;-80
2021/01/06 10:10:21;;;;;;;6.88;3.30;;;;;;;21.74;25.88;97415.06;4984021;28;20037;-79
2021/01/06 10:13:10;;;;;;;4.78;3.30;;;;;;;22.64;24.57;97428.53;5035758;28;20099;-79
2021/01/06 10:16:05;;;;;;;4.60;2.97;;;;;;;23.37;23.64;97446.63;4956645;28;20130;-73
2021/01/06 10:18:34;;;;;;;4.32;2.80;;;;;;;23.46;23.25;97437.38;5044251;28;20159;-72
2021/01/06 10:21:54;;;;;;;15.48;6.05;;;;;;;22.67;24.10;97427.41;5050716;28;20032;-73
2021/01/06 10:25:08;;;;;;;7.53;4.55;;;;;;;22.27;24.51;97430.94;4954898;28;20026;-72
2021/01/06 10:28:01;;;;;;;4.68;2.15;;;;;;;21.81;24.92;97416.06;5041154;28;20047;-72
2021/01/06 10:30:30;;;;;;;14.13;2.72;;;;;;;21.29;25.71;97403.69;5009244;28;20048;-71
2021/01/06 10:33:17;;;;;;;2.97;2.38;;;;;;;21.74;25.04;97408.75;4969202;28;20031;-72
2021/01/06 10:36:05;;;;;;;5.50;2.80;;;;;;;21.07;25.93;97384.19;4952718;28;20466;-72
2021/01/06 10:38:43;;;;;;;4.68;3.05;;;;;;;20.77;26.38;97375.75;4952866;28;20482;-73
2021/01/06 10:41:23;;;;;;;6.03;3.08;;;;;;;19.92;27.52;97396.38;5002992;28;20482;-73
2021/01/06 10:43:54;;;;;;;10.10;4.30;;;;;;;21.12;26.24;97386.47;4969067;28;20030;-73
2021/01/06 10:46:38;;;;;;;3.30;2.33;;;;;;;21.08;25.84;97375.06;4952951;28;20115;-73
2021/01/06 10:49:20;;;;;;;4.82;3.00;;;;;;;20.41;26.97;97375.91;4957440;28;20403;-72
2021/01/06 10:51:54;;;;;;;10.50;5.93;;;;;;;19.60;27.89;97368.91;5015650;28;20020;-72
2021/01/06 10:54:49;;;;;;;30.10;13.55;;;;;;;18.51;29.47;97366.28;5050339;28;20814;-72
2021/01/06 10:57:33;;;;;;;11.73;6.57;;;;;;;19.13;28.97;97386.38;4988893;28;20403;-73
2021/01/06 11:00:05;;;;;;;9.48;5.55;;;;;;;19.83;27.92;97393.75;4969154;28;20096;-73
2021/01/06 11:02:38;;;;;;;10.18;5.82;;;;;;;20.46;27.13;97402.56;4972360;28;20070;-72
2021/01/06 11:05:15;;;;;;;5.22;3.17;;;;;;;21.03;26.32;97399.16;5011932;28;20407;-72
2021/01/06 11:08:04;;;;;;;6.78;3.45;;;;;;;21.45;26.93;97409.19;4968516;28;20069;-72
2021/01/06 11:11:06;;;;;;;8.07;3.38;;;;;;;21.03;26.69;97382.84;5039831;28;20058;-72
2021/01/06 11:13:59;;;;;;;5.20;3.07;;;;;;;20.76;26.71;97383.06;5047127;28;20024;-73
2021/01/06 11:16:28;;;;;;;3.85;2.78;;;;;;;20.82;26.75;97363.38;4968359;28;20042;-72
2021/01/06 11:18:56;;;;;;;3.50;2.50;;;;;;;21.08;26.39;97361.47;4984155;28;20108;-73
2021/01/06 11:21:39;;;;;;;3.95;2.58;;;;;;;20.81;26.93;97363.53;5049986;28;20025;-72
2021/01/06 11:24:33;;;;;;;4.53;2.67;;;;;;;21.84;25.56;97374.88;5035319;28;20112;-73
2021/01/06 11:27:01;;;;;;;5.72;4.00;;;;;;;22.29;25.06;97374.41;5049788;28;20124;-73
2021/01/06 11:29:53;;;;;;;6.85;4.47;;;;;;;21.30;26.58;97383.63;5050011;28;20111;-73
2021/01/06 11:32:18;;;;;;;3.33;1.70;;;;;;;21.20;26.14;97372.91;4972252;28;20043;-73
2021/01/06 11:34:48;;;;;;;6.07;3.28;;;;;;;21.16;26.32;97376.97;5045276;28;20048;-73
2021/01/06 11:37:33;;;;;;;6.38;4.13;;;;;;;20.89;26.58;97363.56;4958205;28;20058;-73
2021/01/06 11:40:00;;;;;;;4.30;3.05;;;;;;;20.51;26.96;97363.06;4987271;28;20029;-73
2021/01/06 11:42:46;;;;;;;4.60;2.67;;;;;;;21.31;26.20;97371.75;4985067;28;20080;-73
2021/01/06 11:45:17;;;;;;;4.00;2.83;;;;;;;21.50;25.84;97366.00;4927143;28;20486;-77
2021/01/06 11:47:45;;;;;;;3.53;2.78;;;;;;;21.78;25.88;97377.47;5035883;28;20071;-76
2021/01/06 11:50:43;;;;;;;9.43;5.60;;;;;;;21.33;26.08;97366.97;5023880;28;20064;-76
2021/01/06 11:53:08;;;;;;;9.43;4.60;;;;;;;21.02;26.86;97375.69;5049823;28;20499;-76
2021/01/06 11:55:38;;;;;;;4.85;2.70;;;;;;;20.64;26.72;97368.03;4982276;28;20035;-76
2021/01/06 11:58:27;;;;;;;4.25;2.63;;;;;;;19.89;28.17;97384.97;4952002;28;20117;-77
2021/01/06 12:01:18;;;;;;;4.10;2.70;;;;;;;19.56;29.27;97388.41;5002059;28;20418;-76
2021/01/06 12:04:05;;;;;;;7.57;4.05;;;;;;;19.93;28.54;97379.06;4979379;28;20041;-79
2021/01/06 12:06:44;;;;;;;5.47;3.47;;;;;;;20.33;27.94;97361.41;5050234;28;20412;-73